Date,TemperatureHighF,TemperatureAvgF,TemperatureLowF,DewpointHighF,DewpointAvgF,DewpointLowF,HumidityHigh,HumidityAvg,HumidityLow,PressureMaxIn,PressureMinIn,WindSpeedMaxMPH,WindSpeedAvgMPH,GustSpeedMaxMPH,PrecipitationSumIn
2014-1-1,38,30,26,25,22,18,80,71,58,0.00,40.00,2,1,7,0.00
2014-1-2,27,20,13,23,17,8,91,84,77,0.00,40.00,10,5,21,6.09
2014-1-3,16,12,6,8,4,1,81,70,53,0.00,40.00,7,3,17,0.00
2014-1-4,35,22,8,15,6,-100,79,57,33,0.00,40.00,12,4,22,0.00
2014-1-5,50,34,20,45,27,14,93,74,59,0.00,40.00,7,2,21,5.04
2014-1-6,50,10,-9,46,3,-20,89,71,56,0.00,40.00,17,11,31,4.44
2014-1-7,6,-1,-9,-3,-10,-20,73,64,57,0.00,40.00,16,9,30,0.00
2014-1-26,33,17,5,22,10,-1,88,71,59,0.00,40.00,9,3,14,3.93
2014-1-27,37,14,-1,27,2,-10,71,60,50,0.00,40.00,15,8,27,0.55
2014-1-28,8,-3,-14,-7,-12,-19,79,65,42,0.00,40.00,6,2,11,0.00
2014-1-29,17,2,-16,0,-8,-21,78,63,41,0.00,40.00,16,4,25,0.00
2014-1-30,34,20,-3,5,-1,-8,80,44,27,0.00,40.00,8,4,16,0.00
2014-1-31,37,34,31,29,18,5,91,57,28,0.00,40.00,9,3,16,1.10
2014-2-1,53,38,31,31,24,-100,91,63,33,0.00,40.00,8,2,12,0.00
2014-2-21,54,43,37,53,27,-100,97,62,37,0.00,40.00,22,9,32,1.10
2014-2-22,53,42,34,28,18,-100,70,41,29,0.00,40.00,15,6,26,0.00
2014-2-23,40,35,27,33,25,12,89,68,40,0.00,40.00,9,3,15,0.00
2014-2-24,32,26,22,14,10,5,70,51,32,0.00,40.00,15,6,25,0.00
2014-2-25,27,24,20,18,14,11,88,66,55,0.00,40.00,11,4,17,1.10
2014-2-26,24,19,14,17,6,0,78,57,38,0.00,40.00,12,6,17,0.00
2014-2-27,21,15,4,12,4,-3,77,60,43,0.00,40.00,19,7,30,0.55
2014-3-2,35,23,14,24,16,1,88,73,55,0.00,40.00,6,3,12,1.65
2014-3-3,21,14,6,1,-2,-4,73,51,31,0.00,40.00,7,3,16,0.00
2014-3-4,35,19,4,15,4,-3,76,53,27,0.00,40.00,4,1,7,0.00
2014-3-5,32,22,14,16,11,6,80,62,34,0.00,40.00,6,2,16,0.00
2014-3-6,42,29,17,19,13,8,69,53,36,0.00,40.00,7,3,14,0.00
2014-3-7,57,39,24,33,25,17,85,60,39,0.00,40.00,6,2,11,0.00
2014-3-8,50,35,26,35,30,25,95,82,53,0.00,40.00,9,2,12,1.65
2014-4-6,60,42,25,31,22,-100,96,57,19,0.00,40.00,8,1,14,0.00
2014-4-7,55,48,41,48,-5,-100,97,45,48,0.00,40.00,13,2,22,0.00
2014-4-8,62,52,41,54,35,-100,93,62,28,0.00,40.00,14,7,30,0.00
2014-4-9,58,47,37,35,32,26,87,58,30,0.00,40.00,9,3,22,0.00
2014-4-10,72,55,33,35,31,29,87,47,22,0.00,40.00,15,5,30,0.00
2014-4-11,68,57,45,55,43,-100,97,77,29,0.00,40.00,7,2,14,0.00
2014-4-12,75,57,36,49,-7,-100,97,27,21,0.00,40.00,10,3,18,0.00
2014-4-13,59,50,56,46,28,-100,69,67,61,0.00,40.00,2,1,5,0.00